createdAt,value
2022-09-04T00:00:14.128Z,4.87
2022-09-04T00:03:21.119Z,6.10
2022-09-04T00:05:56.808Z,5.40
2022-09-04T00:08:48.380Z,9.05
2022-09-04T00:11:49.638Z,4.67
2022-09-04T00:14:25.357Z,5.03
2022-09-04T00:17:28.782Z,6.22
2022-09-04T00:20:04.423Z,7.70
2022-09-04T00:23:01.628Z,9.93
2022-09-04T00:25:40.953Z,5.12
2022-09-04T00:28:26.063Z,7.12
2022-09-04T00:31:08.216Z,5.67
2022-09-04T00:34:02.426Z,5.58
2022-09-04T00:36:31.355Z,5.15
2022-09-04T00:39:04.668Z,7.97
2022-09-04T00:44:52.562Z,5.78
2022-09-04T00:47:43.307Z,7.37
2022-09-04T00:50:50.222Z,6.03
2022-09-04T00:53:37.720Z,4.78
2022-09-04T00:56:31.439Z,9.00
2022-09-04T01:02:00.070Z,4.78
2022-09-04T01:04:47.456Z,4.08
2022-09-04T01:07:49.771Z,7.75
2022-09-04T01:10:59.465Z,14.63
2022-09-04T01:14:12.621Z,16.23
2022-09-04T01:17:28.830Z,5.70
2022-09-04T01:20:35.730Z,4.67
2022-09-04T01:23:32.645Z,5.53
2022-09-04T01:26:50.074Z,4.92
2022-09-04T01:29:39.543Z,3.40
2022-09-04T01:32:55.542Z,9.30
2022-09-04T01:35:32.155Z,11.78
2022-09-04T01:38:33.037Z,6.87
2022-09-04T01:41:46.946Z,5.62
2022-09-04T01:44:23.462Z,7.83
2022-09-04T01:47:15.661Z,5.90
2022-09-04T01:49:51.799Z,7.50
2022-09-04T01:52:59.668Z,7.35
2022-09-04T01:55:50.497Z,6.42
2022-09-04T01:58:42.899Z,5.90
2022-09-04T02:01:27.810Z,9.43
2022-09-04T02:04:15.093Z,9.35
2022-09-04T02:06:58.314Z,5.67
2022-09-04T02:09:54.112Z,6.37
2022-09-04T02:12:44.836Z,9.18
2022-09-04T02:15:25.616Z,7.03
2022-09-04T02:18:29.703Z,8.00
2022-09-04T02:21:11.889Z,8.15
2022-09-04T02:24:18.590Z,6.80
2022-09-04T02:27:01.933Z,9.48
2022-09-04T02:30:04.487Z,11.65
2022-09-04T02:32:40.303Z,5.40
2022-09-04T02:35:31.136Z,7.22
2022-09-04T02:38:22.924Z,7.20
2022-09-04T02:41:14.173Z,7.53
2022-09-04T02:44:02.421Z,7.85
2022-09-04T02:47:04.641Z,8.73
2022-09-04T02:49:48.000Z,6.45
2022-09-04T02:52:37.854Z,7.95
2022-09-04T02:55:23.535Z,10.58
2022-09-04T02:58:25.605Z,11.35
2022-09-04T03:01:14.408Z,13.15
2022-09-04T03:04:12.128Z,12.45
2022-09-04T03:07:14.319Z,8.98
2022-09-04T03:09:50.253Z,11.88
2022-09-04T03:12:41.117Z,9.75
2022-09-04T03:15:34.193Z,11.97
2022-09-04T03:18:28.334Z,7.60
2022-09-04T03:21:16.720Z,7.45
2022-09-04T03:23:49.559Z,9.83
2022-09-04T03:26:44.756Z,7.30
2022-09-04T03:29:22.400Z,7.12
2022-09-04T03:32:19.777Z,6.33
2022-09-04T03:35:04.955Z,7.87
2022-09-04T03:38:05.836Z,9.18
2022-09-04T03:41:08.047Z,11.08
2022-09-04T03:43:54.003Z,7.60
2022-09-04T03:46:33.150Z,7.40
2022-09-04T03:49:24.700Z,7.62
2022-09-04T03:52:20.864Z,10.75
2022-09-04T03:55:30.244Z,6.80
2022-09-04T03:58:28.723Z,6.80
2022-09-04T04:01:05.330Z,10.43
2022-09-04T04:03:57.928Z,7.78
2022-09-04T04:06:37.487Z,8.68
2022-09-04T04:09:42.451Z,5.97
2022-09-04T04:12:51.465Z,16.05
2022-09-04T04:15:36.457Z,15.48
2022-09-04T04:18:11.325Z,44.10
2022-09-04T04:21:26.175Z,16.12
2022-09-04T04:24:19.077Z,12.68
2022-09-04T04:27:28.783Z,5.83
2022-09-04T04:30:09.509Z,1.75
2022-09-04T04:33:16.472Z,3.10
2022-09-04T04:36:05.142Z,4.58
2022-09-04T04:38:50.296Z,2.33
2022-09-04T04:42:05.791Z,2.72
2022-09-04T04:45:19.268Z,4.15
2022-09-04T04:48:09.208Z,5.10
2022-09-04T04:51:17.449Z,5.92
2022-09-04T04:54:15.032Z,3.90
2022-09-04T04:57:09.998Z,5.72
2022-09-04T04:59:55.452Z,4.60
2022-09-04T05:02:51.230Z,7.92
2022-09-04T05:05:41.244Z,10.25
2022-09-04T05:08:41.343Z,3.62
2022-09-04T05:11:41.943Z,2.75
2022-09-04T05:14:42.686Z,3.65
2022-09-04T05:17:53.851Z,20.37
2022-09-04T05:20:32.967Z,39.53
2022-09-04T05:23:28.991Z,11.20
2022-09-04T05:26:12.182Z,7.95
2022-09-04T05:28:54.159Z,4.45
2022-09-04T05:31:45.255Z,4.75
2022-09-04T05:34:30.504Z,3.47
2022-09-04T05:37:11.335Z,1.62
2022-09-04T05:40:09.072Z,4.40
2022-09-04T05:43:05.996Z,5.53
2022-09-04T05:46:09.172Z,2.58
2022-09-04T05:49:16.353Z,4.72
2022-09-04T05:52:22.501Z,3.50
2022-09-04T05:55:13.707Z,7.78
2022-09-04T05:58:11.256Z,4.20
2022-09-04T06:01:00.453Z,3.77
2022-09-04T06:03:53.208Z,3.30
2022-09-04T06:07:04.575Z,2.83
2022-09-04T06:10:06.095Z,3.62
2022-09-04T06:12:54.300Z,4.90
2022-09-04T06:15:47.039Z,4.20
2022-09-04T06:18:23.277Z,5.92
2022-09-04T06:21:28.450Z,3.87
2022-09-04T06:24:26.399Z,3.50
2022-09-04T06:30:17.381Z,5.40
2022-09-04T06:33:20.354Z,4.65
2022-09-04T06:36:24.153Z,4.50
2022-09-04T06:39:19.515Z,4.85
2022-09-04T06:42:13.263Z,5.72
2022-09-04T06:45:09.389Z,4.20
2022-09-04T06:47:48.165Z,4.72
2022-09-04T06:50:51.565Z,4.28
2022-09-04T06:53:50.788Z,4.50
2022-09-04T06:56:39.094Z,4.60
2022-09-04T06:59:28.567Z,6.03
2022-09-04T07:02:20.006Z,5.60
2022-09-04T07:05:05.733Z,4.78
2022-09-04T07:08:12.601Z,4.40
2022-09-04T07:11:12.672Z,5.70
2022-09-04T07:17:21.215Z,4.00
2022-09-04T07:20:39.623Z,4.42
2022-09-04T07:23:44.154Z,4.72
2022-09-04T07:26:37.451Z,5.17
2022-09-04T07:29:37.235Z,4.58
2022-09-04T07:32:14.830Z,4.67
2022-09-04T07:34:50.934Z,4.20
2022-09-04T07:37:59.403Z,5.15
2022-09-04T07:40:41.214Z,4.08
2022-09-04T07:43:46.569Z,4.17
2022-09-04T07:46:28.553Z,5.67
2022-09-04T07:49:19.541Z,3.80
2022-09-04T07:51:56.521Z,3.87
2022-09-04T07:54:38.450Z,3.02
2022-09-04T07:57:31.379Z,2.80
2022-09-04T08:00:08.224Z,3.13
2022-09-04T08:02:56.958Z,5.15
2022-09-04T08:05:36.061Z,3.30
2022-09-04T08:08:47.888Z,4.25
2022-09-04T08:11:40.878Z,3.77
2022-09-04T08:14:42.019Z,2.72
2022-09-04T08:17:58.702Z,3.75
2022-09-04T08:21:10.180Z,3.25
2022-09-04T08:23:58.435Z,3.55
2022-09-04T08:27:04.685Z,4.42
2022-09-04T08:29:49.515Z,3.10
2022-09-04T08:32:46.725Z,3.37
2022-09-04T08:35:32.549Z,2.77
2022-09-04T08:38:22.656Z,2.20
2022-09-04T08:41:31.073Z,3.35
2022-09-04T08:44:28.001Z,1.35
2022-09-04T08:47:22.330Z,1.42
2022-09-04T08:50:27.194Z,1.40
2022-09-04T08:53:09.219Z,1.27
2022-09-04T08:55:51.145Z,1.32
2022-09-04T08:58:35.810Z,1.87
2022-09-04T09:01:47.246Z,1.27
2022-09-04T09:04:26.698Z,1.27
2022-09-04T09:07:21.101Z,1.02
2022-09-04T09:10:03.443Z,0.80
2022-09-04T09:13:12.294Z,0.80
2022-09-04T09:16:03.305Z,3.08
2022-09-04T09:18:40.988Z,1.02
2022-09-04T09:21:14.142Z,1.80
2022-09-04T09:24:26.940Z,1.00
2022-09-04T09:27:22.818Z,1.52
2022-09-04T09:30:18.177Z,1.12
2022-09-04T09:33:15.253Z,1.20
2022-09-04T09:36:24.930Z,0.80
2022-09-04T09:39:31.146Z,0.80
2022-09-04T09:42:20.886Z,1.00
2022-09-04T09:45:18.210Z,0.60
2022-09-04T09:48:03.258Z,1.42
2022-09-04T09:51:03.524Z,0.78
2022-09-04T09:53:39.862Z,0.65
2022-09-04T09:56:38.227Z,0.70
2022-09-04T09:59:28.330Z,1.60
2022-09-04T10:02:27.471Z,0.90
2022-09-04T10:05:40.166Z,0.80
2022-09-04T10:09:05.000Z,0.80
2022-09-04T10:11:55.815Z,0.80
2022-09-04T10:14:56.477Z,0.62
2022-09-04T10:17:55.476Z,0.75
2022-09-04T10:20:40.372Z,0.93
2022-09-04T10:23:55.157Z,1.12
2022-09-04T10:26:50.923Z,0.75
2022-09-04T10:29:42.287Z,0.93
2022-09-04T10:32:31.326Z,0.70
2022-09-04T10:35:27.293Z,1.00
2022-09-04T10:38:12.077Z,0.55
2022-09-04T10:41:27.524Z,1.30
2022-09-04T10:44:06.316Z,0.60
2022-09-04T10:46:57.672Z,1.85
2022-09-04T10:50:05.579Z,1.42
2022-09-04T10:53:02.439Z,0.80
2022-09-04T10:55:53.872Z,1.22
2022-09-04T10:58:41.001Z,0.85
2022-09-04T11:01:41.339Z,0.70
2022-09-04T11:04:43.932Z,0.70
2022-09-04T11:08:11.001Z,0.60
2022-09-04T11:11:03.582Z,0.70
2022-09-04T11:14:04.057Z,0.60
2022-09-04T11:17:20.091Z,9.35
2022-09-04T11:20:18.247Z,5.15
2022-09-04T11:23:14.125Z,2.22
2022-09-04T11:26:32.914Z,2.20
2022-09-04T11:29:40.085Z,15.25
2022-09-04T11:32:30.595Z,8.58
2022-09-04T11:35:13.453Z,1.62
2022-09-04T11:38:04.644Z,1.75
2022-09-04T11:41:15.148Z,2.50
2022-09-04T11:43:54.373Z,0.50
2022-09-04T11:47:07.244Z,0.53
2022-09-04T11:49:43.156Z,2.47
2022-09-04T11:52:41.797Z,0.95
2022-09-04T11:55:40.143Z,3.92
2022-09-04T11:58:13.395Z,3.45
2022-09-04T12:03:33.218Z,1.80
2022-09-04T12:06:18.894Z,0.50
2022-09-04T12:09:11.749Z,0.40
2022-09-04T12:12:23.394Z,1.05
2022-09-04T12:14:56.340Z,7.03
2022-09-04T12:20:37.901Z,4.33
2022-09-04T12:23:30.750Z,2.50
2022-09-04T12:26:27.738Z,7.10
2022-09-04T12:29:09.607Z,0.47
2022-09-04T12:31:46.280Z,1.15
2022-09-04T12:34:51.874Z,1.22
2022-09-04T12:37:36.420Z,13.03
2022-09-04T12:40:26.189Z,6.67
2022-09-04T12:43:16.004Z,1.37
2022-09-04T12:46:08.502Z,0.53
2022-09-04T12:49:18.206Z,6.12
2022-09-04T12:51:51.126Z,6.37
2022-09-04T12:54:53.473Z,2.37
2022-09-04T12:57:47.460Z,2.00
2022-09-04T13:00:18.086Z,1.72
2022-09-04T13:03:20.419Z,0.88
2022-09-04T13:06:01.408Z,1.65
2022-09-04T13:08:56.015Z,0.70
2022-09-04T13:11:54.862Z,1.20
2022-09-04T13:15:11.036Z,0.82
2022-09-04T13:18:03.632Z,1.10
2022-09-04T13:20:48.494Z,0.45
2022-09-04T13:23:55.362Z,1.32
2022-09-04T13:26:45.911Z,0.40
2022-09-04T13:29:24.847Z,0.50
2022-09-04T13:32:03.534Z,0.30
2022-09-04T13:35:07.102Z,0.30
2022-09-04T13:37:55.645Z,0.40
2022-09-04T13:40:40.687Z,2.50
2022-09-04T13:43:46.064Z,0.40
2022-09-04T13:46:21.151Z,0.62
2022-09-04T13:48:56.960Z,0.47
2022-09-04T13:51:32.492Z,0.40
2022-09-04T13:54:24.199Z,0.78
2022-09-04T13:57:01.652Z,0.40
2022-09-04T13:59:29.529Z,0.30
2022-09-04T14:02:02.089Z,0.40
2022-09-04T14:04:43.108Z,0.88
2022-09-04T14:07:18.645Z,0.53
2022-09-04T14:09:49.670Z,0.40
2022-09-04T14:13:02.371Z,0.30
2022-09-04T14:15:51.038Z,0.65
2022-09-04T14:18:27.468Z,0.30
2022-09-04T14:21:01.134Z,0.78
2022-09-04T14:23:46.802Z,1.17
2022-09-04T14:26:47.512Z,0.30
2022-09-04T14:29:22.898Z,0.82
2022-09-04T14:32:05.328Z,2.25
2022-09-04T14:34:48.798Z,0.40
2022-09-04T14:40:11.608Z,0.40
2022-09-04T14:42:55.875Z,0.30
2022-09-04T14:45:30.883Z,0.40
2022-09-04T14:48:03.899Z,0.40
2022-09-04T14:50:36.617Z,2.55
2022-09-04T14:53:07.708Z,1.67
2022-09-04T14:55:46.348Z,0.30
2022-09-04T14:58:24.957Z,0.30
2022-09-04T15:01:00.852Z,0.30
2022-09-04T15:03:39.859Z,0.40
2022-09-04T15:06:16.234Z,0.53
2022-09-04T15:08:45.446Z,0.70
2022-09-04T15:11:32.182Z,0.95
2022-09-04T15:14:11.873Z,0.30
2022-09-04T15:16:50.157Z,0.57
2022-09-04T15:19:49.954Z,0.60
2022-09-04T15:22:36.905Z,1.32
2022-09-04T15:26:00.420Z,0.80
2022-09-04T15:28:40.963Z,0.40
2022-09-04T15:31:16.256Z,0.50
2022-09-04T15:33:46.488Z,0.50
2022-09-04T15:36:22.363Z,0.30
2022-09-04T15:38:57.685Z,0.30
2022-09-04T15:41:49.415Z,0.30
2022-09-04T15:44:29.734Z,0.30
2022-09-04T15:47:19.926Z,0.62
2022-09-04T15:49:58.054Z,1.25
2022-09-04T15:52:59.555Z,1.57
2022-09-04T15:55:31.451Z,0.40
2022-09-04T15:58:19.456Z,0.53
2022-09-04T16:01:08.662Z,1.67
2022-09-04T16:03:44.748Z,1.00
2022-09-04T16:06:32.655Z,1.72
2022-09-04T16:09:08.376Z,1.10
2022-09-04T16:11:44.441Z,2.75
2022-09-04T16:14:25.114Z,1.70
2022-09-04T16:16:59.484Z,1.02
2022-09-04T16:19:52.354Z,0.90
2022-09-04T16:22:51.182Z,0.60
2022-09-04T16:25:30.284Z,0.60
2022-09-04T16:28:09.857Z,0.62
2022-09-04T16:30:47.767Z,0.53
2022-09-04T16:33:35.130Z,0.65
2022-09-04T16:36:10.899Z,1.90
2022-09-04T16:39:13.822Z,1.70
2022-09-04T16:41:56.595Z,3.75
2022-09-04T16:44:50.943Z,6.33
2022-09-04T16:47:43.461Z,2.42
2022-09-04T16:50:25.466Z,1.35
2022-09-04T16:53:17.082Z,1.77
2022-09-04T16:55:54.414Z,3.58
2022-09-04T16:58:55.706Z,2.02
2022-09-04T17:01:46.475Z,2.52
2022-09-04T17:04:19.640Z,4.28
2022-09-04T17:07:14.159Z,3.42
2022-09-04T17:10:05.207Z,3.80
2022-09-04T17:13:17.446Z,4.50
2022-09-04T17:16:02.519Z,4.85
2022-09-04T17:18:31.861Z,5.87
2022-09-04T17:26:31.182Z,3.80
2022-09-04T17:29:09.385Z,3.65
2022-09-04T17:29:19.380Z,3.45
2022-09-04T17:29:52.311Z,5.67
2022-09-04T17:37:44.051Z,9.38
2022-09-04T17:40:38.612Z,7.28
2022-09-04T17:40:54.774Z,3.80
2022-09-04T17:41:36.382Z,6.12
2022-09-04T17:44:03.787Z,3.87
2022-09-04T17:46:41.113Z,5.08
2022-09-04T17:49:22.009Z,8.35
2022-09-04T17:51:58.040Z,13.27
2022-09-04T17:54:32.815Z,11.25
2022-09-04T17:57:11.905Z,5.22
2022-09-04T18:00:00.220Z,7.12
2022-09-04T18:02:41.814Z,7.25
2022-09-04T18:05:14.850Z,7.33
2022-09-04T18:08:07.290Z,4.62
2022-09-04T18:10:36.081Z,4.92
2022-09-04T18:13:38.048Z,7.53
2022-09-04T18:16:19.795Z,7.80
2022-09-04T18:19:14.548Z,6.75
2022-09-04T18:22:26.149Z,5.03
2022-09-04T18:24:38.267Z,11.33
2022-09-04T18:27:17.070Z,10.55
2022-09-04T18:37:06.202Z,8.78
2022-09-04T18:37:41.407Z,6.78
2022-09-04T18:39:09.320Z,9.33
2022-09-04T18:50:20.769Z,5.22
2022-09-04T18:50:28.628Z,3.98
2022-09-04T18:51:12.544Z,3.60
2022-09-04T18:53:20.781Z,5.47
2022-09-04T18:55:59.255Z,4.58
2022-09-04T18:58:53.552Z,7.10
2022-09-04T19:01:44.375Z,3.50
2022-09-04T19:04:46.890Z,2.83
2022-09-04T19:07:46.051Z,3.12
2022-09-04T19:10:35.362Z,3.52
2022-09-04T19:13:11.536Z,4.45
2022-09-04T19:16:03.226Z,3.45
2022-09-04T19:18:38.265Z,2.80
2022-09-04T19:21:15.182Z,6.15
2022-09-04T19:23:54.501Z,3.67
2022-09-04T19:26:37.177Z,6.50
2022-09-04T19:29:18.851Z,5.72
2022-09-04T19:32:01.323Z,5.87
2022-09-04T19:34:45.851Z,3.22
2022-09-04T19:41:02.841Z,3.70
2022-09-04T19:46:02.354Z,4.00
2022-09-04T19:46:15.050Z,3.98
2022-09-04T19:46:29.350Z,3.58
2022-09-04T19:52:13.253Z,3.60
2022-09-04T19:53:36.175Z,2.98
2022-09-04T19:55:25.247Z,5.53
2022-09-04T19:57:53.702Z,5.60
2022-09-04T20:00:43.040Z,9.93
2022-09-04T20:03:04.538Z,8.40
2022-09-04T20:05:34.999Z,7.75
2022-09-04T20:08:16.171Z,5.30
2022-09-04T20:11:10.597Z,7.55
2022-09-04T20:13:47.811Z,5.37
2022-09-04T20:16:48.294Z,6.67
2022-09-04T20:19:29.058Z,5.55
2022-09-04T20:22:13.553Z,4.70
2022-09-04T20:25:02.165Z,7.12
2022-09-04T20:27:45.457Z,4.60
2022-09-04T20:30:21.864Z,6.28
2022-09-04T20:33:06.183Z,5.45
2022-09-04T20:35:54.545Z,7.22
2022-09-04T20:38:32.033Z,6.42
2022-09-04T20:41:08.345Z,4.67
2022-09-04T20:44:10.689Z,6.90
2022-09-04T20:52:37.645Z,4.55
2022-09-04T20:52:48.683Z,6.67
2022-09-04T20:53:06.289Z,4.33
2022-09-04T20:55:35.891Z,7.05
2022-09-04T21:03:09.049Z,5.40
2022-09-04T21:03:22.136Z,4.97
2022-09-04T21:03:57.412Z,5.47
2022-09-04T21:06:37.877Z,7.42
2022-09-04T21:09:55.139Z,6.03
2022-09-04T21:12:29.521Z,4.62
2022-09-04T21:15:35.053Z,6.45
2022-09-04T21:18:33.979Z,8.15
2022-09-04T21:21:44.024Z,5.30
2022-09-04T21:24:45.812Z,8.83
2022-09-04T21:27:37.054Z,5.25
2022-09-04T21:30:55.290Z,6.83
2022-09-04T21:33:36.458Z,6.72
2022-09-04T21:36:29.110Z,5.08
2022-09-04T21:39:33.016Z,4.78
2022-09-04T21:42:17.215Z,6.47
2022-09-04T21:45:15.680Z,4.25
2022-09-04T21:47:48.818Z,3.22
2022-09-04T21:50:42.864Z,4.83
2022-09-04T22:02:26.112Z,9.65
2022-09-04T22:02:45.672Z,4.92
2022-09-04T22:05:10.381Z,2.65
2022-09-04T22:13:00.077Z,3.75
2022-09-04T22:13:43.194Z,3.30
2022-09-04T22:14:03.244Z,2.58
2022-09-04T22:16:55.044Z,4.10
2022-09-04T22:19:57.344Z,7.20
2022-09-04T22:22:48.713Z,5.08
2022-09-04T22:25:40.720Z,6.17
2022-09-04T22:28:36.760Z,8.35
2022-09-04T22:31:26.756Z,5.75
2022-09-04T22:34:22.542Z,3.98
2022-09-04T22:37:10.282Z,5.87
2022-09-04T22:40:08.614Z,6.00
2022-09-04T22:43:14.030Z,3.33
2022-09-04T22:46:02.631Z,3.40
2022-09-04T22:48:47.913Z,4.25
2022-09-04T22:51:54.814Z,2.77
2022-09-04T22:55:23.073Z,5.42
2022-09-04T22:57:58.665Z,4.60
2022-09-04T23:00:26.381Z,3.22
2022-09-04T23:03:14.566Z,4.70
2022-09-04T23:05:54.228Z,5.12
2022-09-04T23:13:48.780Z,3.60
2022-09-04T23:13:54.632Z,5.12
2022-09-04T23:14:49.349Z,6.65
2022-09-04T23:17:34.261Z,4.90
2022-09-04T23:26:33.491Z,3.50
2022-09-04T23:26:49.987Z,4.33
2022-09-04T23:27:00.788Z,4.85
2022-09-04T23:29:21.488Z,5.47
2022-09-04T23:32:21.604Z,9.00
2022-09-04T23:35:42.720Z,5.45
2022-09-04T23:39:18.752Z,4.83
2022-09-04T23:42:30.843Z,7.78
2022-09-04T23:46:02.288Z,7.67
2022-09-04T23:49:23.233Z,6.62
2022-09-04T23:52:49.021Z,6.90
2022-09-04T23:55:59.843Z,4.30
2022-09-04T23:59:27.359Z,4.35
